sensor_id;sensor_type;location;lat;lon;timestamp;temperature;humidity
76239;SHT30;65043;48.392;-4.472;2024-02-23T00:01:35;9.53;72.28
76239;SHT30;65043;48.392;-4.472;2024-02-23T00:04:00;9.53;72.13
76239;SHT30;65043;48.392;-4.472;2024-02-23T00:06:27;9.51;72.02
76239;SHT30;65043;48.392;-4.472;2024-02-23T00:08:54;9.50;72.23
76239;SHT30;65043;48.392;-4.472;2024-02-23T00:11:23;9.51;71.98
76239;SHT30;65043;48.392;-4.472;2024-02-23T00:13:48;9.53;72.06
76239;SHT30;65043;48.392;-4.472;2024-02-23T00:16:14;9.56;71.46
76239;SHT30;65043;48.392;-4.472;2024-02-23T00:18:40;9.57;71.28
76239;SHT30;65043;48.392;-4.472;2024-02-23T00:21:05;9.61;70.62
76239;SHT30;65043;48.392;-4.472;2024-02-23T00:23:30;9.63;70.46
76239;SHT30;65043;48.392;-4.472;2024-02-23T00:25:56;9.63;69.68
76239;SHT30;65043;48.392;-4.472;2024-02-23T00:28:21;9.64;69.49
76239;SHT30;65043;48.392;-4.472;2024-02-23T00:30:47;9.67;69.76
76239;SHT30;65043;48.392;-4.472;2024-02-23T00:33:13;9.66;69.01
76239;SHT30;65043;48.392;-4.472;2024-02-23T00:35:38;9.64;68.64
76239;SHT30;65043;48.392;-4.472;2024-02-23T00:38:04;9.63;68.76
76239;SHT30;65043;48.392;-4.472;2024-02-23T00:40:30;9.66;68.80
76239;SHT30;65043;48.392;-4.472;2024-02-23T00:42:55;9.64;68.35
76239;SHT30;65043;48.392;-4.472;2024-02-23T00:45:21;9.66;68.69
76239;SHT30;65043;48.392;-4.472;2024-02-23T00:47:47;9.67;69.25
76239;SHT30;65043;48.392;-4.472;2024-02-23T00:50:13;9.66;69.19
76239;SHT30;65043;48.392;-4.472;2024-02-23T00:52:39;9.69;69.19
76239;SHT30;65043;48.392;-4.472;2024-02-23T00:55:06;9.73;69.53
76239;SHT30;65043;48.392;-4.472;2024-02-23T00:57:37;9.77;69.99
76239;SHT30;65043;48.392;-4.472;2024-02-23T01:00:04;9.75;70.75
76239;SHT30;65043;48.392;-4.472;2024-02-23T01:02:31;9.74;71.57
76239;SHT30;65043;48.392;-4.472;2024-02-23T01:04:58;9.73;72.18
76239;SHT30;65043;48.392;-4.472;2024-02-23T01:07:24;9.73;72.27
76239;SHT30;65043;48.392;-4.472;2024-02-23T01:09:50;9.73;72.55
76239;SHT30;65043;48.392;-4.472;2024-02-23T01:12:16;9.71;71.98
76239;SHT30;65043;48.392;-4.472;2024-02-23T01:14:41;9.70;71.51
76239;SHT30;65043;48.392;-4.472;2024-02-23T01:17:06;9.67;71.45
76239;SHT30;65043;48.392;-4.472;2024-02-23T01:19:32;9.67;71.27
76239;SHT30;65043;48.392;-4.472;2024-02-23T01:21:58;9.70;70.59
76239;SHT30;65043;48.392;-4.472;2024-02-23T01:24:27;9.60;69.71
76239;SHT30;65043;48.392;-4.472;2024-02-23T01:26:56;9.58;69.70
76239;SHT30;65043;48.392;-4.472;2024-02-23T01:29:25;9.54;69.54
76239;SHT30;65043;48.392;-4.472;2024-02-23T01:31:51;9.54;69.84
76239;SHT30;65043;48.392;-4.472;2024-02-23T01:34:20;9.33;70.14
76239;SHT30;65043;48.392;-4.472;2024-02-23T01:36:45;9.16;69.58
76239;SHT30;65043;48.392;-4.472;2024-02-23T01:39:11;9.06;69.49
76239;SHT30;65043;48.392;-4.472;2024-02-23T01:41:37;8.96;69.94
76239;SHT30;65043;48.392;-4.472;2024-02-23T01:44:02;8.96;70.72
76239;SHT30;65043;48.392;-4.472;2024-02-23T01:46:28;8.95;71.34
76239;SHT30;65043;48.392;-4.472;2024-02-23T01:48:54;8.95;71.09
76239;SHT30;65043;48.392;-4.472;2024-02-23T01:51:20;8.98;71.47
76239;SHT30;65043;48.392;-4.472;2024-02-23T01:53:46;8.96;71.60
76239;SHT30;65043;48.392;-4.472;2024-02-23T01:56:13;8.99;71.66
76239;SHT30;65043;48.392;-4.472;2024-02-23T01:58:43;9.05;71.56
76239;SHT30;65043;48.392;-4.472;2024-02-23T02:01:08;9.06;71.93
76239;SHT30;65043;48.392;-4.472;2024-02-23T02:03:38;9.09;72.10
76239;SHT30;65043;48.392;-4.472;2024-02-23T02:06:05;9.12;72.32
76239;SHT30;65043;48.392;-4.472;2024-02-23T02:08:33;9.13;72.18
76239;SHT30;65043;48.392;-4.472;2024-02-23T02:10:58;9.12;72.09
76239;SHT30;65043;48.392;-4.472;2024-02-23T02:13:24;9.15;72.55
76239;SHT30;65043;48.392;-4.472;2024-02-23T02:15:49;9.18;72.60
76239;SHT30;65043;48.392;-4.472;2024-02-23T02:18:15;9.18;72.75
76239;SHT30;65043;48.392;-4.472;2024-02-23T02:20:53;9.19;72.82
76239;SHT30;65043;48.392;-4.472;2024-02-23T02:23:19;9.18;73.01
76239;SHT30;65043;48.392;-4.472;2024-02-23T02:25:52;9.20;73.09
76239;SHT30;65043;48.392;-4.472;2024-02-23T02:28:18;9.25;73.30
76239;SHT30;65043;48.392;-4.472;2024-02-23T02:30:43;9.25;73.17
76239;SHT30;65043;48.392;-4.472;2024-02-23T02:33:09;9.27;73.10
76239;SHT30;65043;48.392;-4.472;2024-02-23T02:35:34;9.27;72.93
76239;SHT30;65043;48.392;-4.472;2024-02-23T02:38:00;9.25;73.19
76239;SHT30;65043;48.392;-4.472;2024-02-23T02:40:25;9.25;72.92
76239;SHT30;65043;48.392;-4.472;2024-02-23T02:42:51;9.25;73.31
76239;SHT30;65043;48.392;-4.472;2024-02-23T02:45:16;9.23;72.99
76239;SHT30;65043;48.392;-4.472;2024-02-23T02:47:42;9.22;73.18
76239;SHT30;65043;48.392;-4.472;2024-02-23T02:50:08;9.22;73.08
76239;SHT30;65043;48.392;-4.472;2024-02-23T02:52:34;9.20;73.31
76239;SHT30;65043;48.392;-4.472;2024-02-23T02:55:00;9.25;73.09
76239;SHT30;65043;48.392;-4.472;2024-02-23T02:57:25;9.20;72.73
76239;SHT30;65043;48.392;-4.472;2024-02-23T02:59:51;9.25;72.89
76239;SHT30;65043;48.392;-4.472;2024-02-23T03:02:16;9.25;72.71
76239;SHT30;65043;48.392;-4.472;2024-02-23T03:04:49;9.27;72.63
76239;SHT30;65043;48.392;-4.472;2024-02-23T03:07:15;9.26;72.76
76239;SHT30;65043;48.392;-4.472;2024-02-23T03:09:41;9.27;72.76
76239;SHT30;65043;48.392;-4.472;2024-02-23T03:12:06;9.27;72.65
76239;SHT30;65043;48.392;-4.472;2024-02-23T03:14:32;9.25;72.47
76239;SHT30;65043;48.392;-4.472;2024-02-23T03:16:59;9.29;72.33
76239;SHT30;65043;48.392;-4.472;2024-02-23T03:19:24;9.30;72.43
76239;SHT30;65043;48.392;-4.472;2024-02-23T03:21:51;9.29;71.89
76239;SHT30;65043;48.392;-4.472;2024-02-23T03:24:17;9.32;72.02
76239;SHT30;65043;48.392;-4.472;2024-02-23T03:26:42;9.33;71.91
76239;SHT30;65043;48.392;-4.472;2024-02-23T03:29:09;9.37;71.98
76239;SHT30;65043;48.392;-4.472;2024-02-23T03:31:34;9.40;72.08
76239;SHT30;65043;48.392;-4.472;2024-02-23T03:34:00;9.46;72.14
76239;SHT30;65043;48.392;-4.472;2024-02-23T03:36:26;9.46;71.98
76239;SHT30;65043;48.392;-4.472;2024-02-23T03:38:51;9.44;72.10
76239;SHT30;65043;48.392;-4.472;2024-02-23T03:41:17;9.47;71.79
76239;SHT30;65043;48.392;-4.472;2024-02-23T03:43:43;9.47;71.87
76239;SHT30;65043;48.392;-4.472;2024-02-23T03:46:08;9.42;70.79
76239;SHT30;65043;48.392;-4.472;2024-02-23T03:48:34;9.42;71.16
76239;SHT30;65043;48.392;-4.472;2024-02-23T03:51:03;9.43;71.02
76239;SHT30;65043;48.392;-4.472;2024-02-23T03:53:28;9.42;70.95
76239;SHT30;65043;48.392;-4.472;2024-02-23T03:55:54;9.46;70.80
76239;SHT30;65043;48.392;-4.472;2024-02-23T03:58:19;9.43;70.46
76239;SHT30;65043;48.392;-4.472;2024-02-23T04:00:45;9.43;70.71
76239;SHT30;65043;48.392;-4.472;2024-02-23T04:03:10;9.48;70.71
76239;SHT30;65043;48.392;-4.472;2024-02-23T04:05:36;9.44;70.45
76239;SHT30;65043;48.392;-4.472;2024-02-23T04:08:01;9.48;70.44
76239;SHT30;65043;48.392;-4.472;2024-02-23T04:10:27;9.47;70.79
76239;SHT30;65043;48.392;-4.472;2024-02-23T04:12:52;9.51;70.93
76239;SHT30;65043;48.392;-4.472;2024-02-23T04:15:17;9.51;70.80
76239;SHT30;65043;48.392;-4.472;2024-02-23T04:17:43;9.51;70.81
76239;SHT30;65043;48.392;-4.472;2024-02-23T04:20:09;9.50;71.18
76239;SHT30;65043;48.392;-4.472;2024-02-23T04:22:35;9.48;71.77
76239;SHT30;65043;48.392;-4.472;2024-02-23T04:25:01;9.46;72.18
76239;SHT30;65043;48.392;-4.472;2024-02-23T04:27:26;9.48;72.43
76239;SHT30;65043;48.392;-4.472;2024-02-23T04:29:52;9.46;72.49
76239;SHT30;65043;48.392;-4.472;2024-02-23T04:32:18;9.40;71.75
76239;SHT30;65043;48.392;-4.472;2024-02-23T04:34:43;9.43;72.23
76239;SHT30;65043;48.392;-4.472;2024-02-23T04:37:09;9.46;72.10
76239;SHT30;65043;48.392;-4.472;2024-02-23T04:39:34;9.44;71.86
76239;SHT30;65043;48.392;-4.472;2024-02-23T04:42:00;9.44;71.76
76239;SHT30;65043;48.392;-4.472;2024-02-23T04:44:25;9.46;71.74
76239;SHT30;65043;48.392;-4.472;2024-02-23T04:46:50;9.46;71.50
76239;SHT30;65043;48.392;-4.472;2024-02-23T04:49:16;9.46;70.78
76239;SHT30;65043;48.392;-4.472;2024-02-23T04:51:41;9.42;70.48
76239;SHT30;65043;48.392;-4.472;2024-02-23T04:54:07;9.44;70.78
76239;SHT30;65043;48.392;-4.472;2024-02-23T04:56:32;9.33;70.01
76239;SHT30;65043;48.392;-4.472;2024-02-23T04:58:59;9.32;70.52
76239;SHT30;65043;48.392;-4.472;2024-02-23T05:01:24;9.27;70.80
76239;SHT30;65043;48.392;-4.472;2024-02-23T05:03:50;9.26;70.01
76239;SHT30;65043;48.392;-4.472;2024-02-23T05:06:15;9.23;70.41
76239;SHT30;65043;48.392;-4.472;2024-02-23T05:08:41;9.22;70.06
76239;SHT30;65043;48.392;-4.472;2024-02-23T05:11:06;9.23;70.44
76239;SHT30;65043;48.392;-4.472;2024-02-23T05:13:32;9.23;70.94
76239;SHT30;65043;48.392;-4.472;2024-02-23T05:15:57;9.26;71.52
76239;SHT30;65043;48.392;-4.472;2024-02-23T05:18:23;9.27;71.77
76239;SHT30;65043;48.392;-4.472;2024-02-23T05:20:48;9.32;71.67
76239;SHT30;65043;48.392;-4.472;2024-02-23T05:23:14;9.32;71.78
76239;SHT30;65043;48.392;-4.472;2024-02-23T05:25:41;9.32;71.56
76239;SHT30;65043;48.392;-4.472;2024-02-23T05:28:08;9.30;71.63
76239;SHT30;65043;48.392;-4.472;2024-02-23T05:30:33;9.33;71.83
76239;SHT30;65043;48.392;-4.472;2024-02-23T05:32:58;9.32;71.94
76239;SHT30;65043;48.392;-4.472;2024-02-23T05:35:25;9.32;72.06
76239;SHT30;65043;48.392;-4.472;2024-02-23T05:37:51;9.35;72.29
76239;SHT30;65043;48.392;-4.472;2024-02-23T05:40:17;9.35;72.39
76239;SHT30;65043;48.392;-4.472;2024-02-23T05:42:42;9.37;72.20
76239;SHT30;65043;48.392;-4.472;2024-02-23T05:45:08;9.40;72.14
76239;SHT30;65043;48.392;-4.472;2024-02-23T05:47:39;9.36;72.23
76239;SHT30;65043;48.392;-4.472;2024-02-23T05:50:08;9.36;72.23
76239;SHT30;65043;48.392;-4.472;2024-02-23T05:52:34;9.36;72.33
76239;SHT30;65043;48.392;-4.472;2024-02-23T05:55:03;9.37;71.77
76239;SHT30;65043;48.392;-4.472;2024-02-23T05:57:29;9.30;69.98
76239;SHT30;65043;48.392;-4.472;2024-02-23T05:59:55;9.32;70.17
76239;SHT30;65043;48.392;-4.472;2024-02-23T06:02:21;9.35;69.84
76239;SHT30;65043;48.392;-4.472;2024-02-23T06:04:47;9.33;69.73
76239;SHT30;65043;48.392;-4.472;2024-02-23T06:07:14;9.32;70.03
76239;SHT30;65043;48.392;-4.472;2024-02-23T06:09:45;9.33;70.07
76239;SHT30;65043;48.392;-4.472;2024-02-23T06:12:10;9.32;70.25
76239;SHT30;65043;48.392;-4.472;2024-02-23T06:14:36;9.33;70.31
76239;SHT30;65043;48.392;-4.472;2024-02-23T06:17:02;9.33;70.57
76239;SHT30;65043;48.392;-4.472;2024-02-23T06:19:28;9.20;70.54
76239;SHT30;65043;48.392;-4.472;2024-02-23T06:21:53;9.13;70.23
76239;SHT30;65043;48.392;-4.472;2024-02-23T06:24:19;9.11;71.00
76239;SHT30;65043;48.392;-4.472;2024-02-23T06:26:45;9.05;70.07
76239;SHT30;65043;48.392;-4.472;2024-02-23T06:29:11;9.02;70.66
76239;SHT30;65043;48.392;-4.472;2024-02-23T06:31:38;8.93;69.88
76239;SHT30;65043;48.392;-4.472;2024-02-23T06:34:05;8.86;69.96
76239;SHT30;65043;48.392;-4.472;2024-02-23T06:36:30;8.86;70.61
76239;SHT30;65043;48.392;-4.472;2024-02-23T06:38:56;8.88;70.73
76239;SHT30;65043;48.392;-4.472;2024-02-23T06:41:24;8.89;71.08
76239;SHT30;65043;48.392;-4.472;2024-02-23T06:43:52;8.88;71.32
76239;SHT30;65043;48.392;-4.472;2024-02-23T06:46:21;8.85;71.58
76239;SHT30;65043;48.392;-4.472;2024-02-23T06:48:47;8.84;71.78
76239;SHT30;65043;48.392;-4.472;2024-02-23T06:51:13;8.85;72.05
76239;SHT30;65043;48.392;-4.472;2024-02-23T06:53:41;8.79;71.71
76239;SHT30;65043;48.392;-4.472;2024-02-23T06:56:07;8.82;71.94
76239;SHT30;65043;48.392;-4.472;2024-02-23T06:58:34;8.84;71.27
76239;SHT30;65043;48.392;-4.472;2024-02-23T07:01:02;8.85;71.27
76239;SHT30;65043;48.392;-4.472;2024-02-23T07:03:28;8.85;70.19
76239;SHT30;65043;48.392;-4.472;2024-02-23T07:05:55;8.82;70.63
76239;SHT30;65043;48.392;-4.472;2024-02-23T07:08:23;8.81;69.98
76239;SHT30;65043;48.392;-4.472;2024-02-23T07:10:49;8.82;69.76
76239;SHT30;65043;48.392;-4.472;2024-02-23T07:13:14;8.84;69.80
76239;SHT30;65043;48.392;-4.472;2024-02-23T07:15:39;8.85;69.87
76239;SHT30;65043;48.392;-4.472;2024-02-23T07:18:05;8.86;69.66
76239;SHT30;65043;48.392;-4.472;2024-02-23T07:20:36;8.89;69.70
76239;SHT30;65043;48.392;-4.472;2024-02-23T07:23:09;8.95;69.84
76239;SHT30;65043;48.392;-4.472;2024-02-23T07:25:41;8.93;68.95
76239;SHT30;65043;48.392;-4.472;2024-02-23T07:28:07;8.82;70.33
76239;SHT30;65043;48.392;-4.472;2024-02-23T07:30:32;8.74;71.09
76239;SHT30;65043;48.392;-4.472;2024-02-23T07:33:00;8.63;71.81
76239;SHT30;65043;48.392;-4.472;2024-02-23T07:35:26;8.55;72.76
76239;SHT30;65043;48.392;-4.472;2024-02-23T07:37:51;8.50;73.16
76239;SHT30;65043;48.392;-4.472;2024-02-23T07:40:17;8.53;73.08
76239;SHT30;65043;48.392;-4.472;2024-02-23T07:43:15;8.51;73.14
76239;SHT30;65043;48.392;-4.472;2024-02-23T08:51:49;8.85;73.75
76239;SHT30;65043;48.392;-4.472;2024-02-23T08:54:14;8.88;73.84
76239;SHT30;65043;48.392;-4.472;2024-02-23T09:07:51;9.12;74.45
76239;SHT30;65043;48.392;-4.472;2024-02-23T09:10:28;9.16;74.35
76239;SHT30;65043;48.392;-4.472;2024-02-23T09:12:56;9.16;74.03
76239;SHT30;65043;48.392;-4.472;2024-02-23T09:15:21;9.20;73.91
76239;SHT30;65043;48.392;-4.472;2024-02-23T09:17:49;9.20;72.95
76239;SHT30;65043;48.392;-4.472;2024-02-23T09:20:15;9.19;72.36
76239;SHT30;65043;48.392;-4.472;2024-02-23T09:22:40;9.23;71.40
76239;SHT30;65043;48.392;-4.472;2024-02-23T09:25:07;9.23;69.15
76239;SHT30;65043;48.392;-4.472;2024-02-23T09:27:36;9.27;69.60
76239;SHT30;65043;48.392;-4.472;2024-02-23T09:30:06;9.29;68.89
76239;SHT30;65043;48.392;-4.472;2024-02-23T09:32:31;9.32;68.75
76239;SHT30;65043;48.392;-4.472;2024-02-23T09:35:23;9.30;68.80
76239;SHT30;65043;48.392;-4.472;2024-02-23T09:37:51;9.35;69.71
76239;SHT30;65043;48.392;-4.472;2024-02-23T09:40:17;9.27;70.50
76239;SHT30;65043;48.392;-4.472;2024-02-23T09:42:43;9.27;70.58
76239;SHT30;65043;48.392;-4.472;2024-02-23T09:45:12;9.27;70.42
76239;SHT30;65043;48.392;-4.472;2024-02-23T09:47:38;9.30;70.43
76239;SHT30;65043;48.392;-4.472;2024-02-23T09:50:04;9.37;70.15
76239;SHT30;65043;48.392;-4.472;2024-02-23T09:52:32;9.37;69.91
76239;SHT30;65043;48.392;-4.472;2024-02-23T09:54:57;9.37;70.12
76239;SHT30;65043;48.392;-4.472;2024-02-23T10:04:16;9.32;68.39
76239;SHT30;65043;48.392;-4.472;2024-02-23T10:06:44;9.32;69.15
76239;SHT30;65043;48.392;-4.472;2024-02-23T10:09:10;9.32;68.46
76239;SHT30;65043;48.392;-4.472;2024-02-23T10:11:40;9.32;68.02
76239;SHT30;65043;48.392;-4.472;2024-02-23T10:14:05;9.35;68.71
76239;SHT30;65043;48.392;-4.472;2024-02-23T10:16:31;9.35;68.19
76239;SHT30;65043;48.392;-4.472;2024-02-23T10:18:57;9.39;67.70
76239;SHT30;65043;48.392;-4.472;2024-02-23T10:21:23;9.40;67.44
76239;SHT30;65043;48.392;-4.472;2024-02-23T10:23:50;9.39;67.26
76239;SHT30;65043;48.392;-4.472;2024-02-23T10:26:17;9.42;67.28
76239;SHT30;65043;48.392;-4.472;2024-02-23T10:28:45;9.46;68.00
76239;SHT30;65043;48.392;-4.472;2024-02-23T10:31:12;9.46;68.31
76239;SHT30;65043;48.392;-4.472;2024-02-23T10:33:41;9.53;68.46
76239;SHT30;65043;48.392;-4.472;2024-02-23T10:36:09;9.56;68.16
76239;SHT30;65043;48.392;-4.472;2024-02-23T10:38:38;9.58;68.31
76239;SHT30;65043;48.392;-4.472;2024-02-23T10:44:54;9.69;68.66
76239;SHT30;65043;48.392;-4.472;2024-02-23T10:47:30;9.66;69.08
76239;SHT30;65043;48.392;-4.472;2024-02-23T10:50:14;9.73;69.39
76239;SHT30;65043;48.392;-4.472;2024-02-23T10:52:50;9.73;69.42
76239;SHT30;65043;48.392;-4.472;2024-02-23T10:58:59;9.80;69.23
76239;SHT30;65043;48.392;-4.472;2024-02-23T11:01:31;9.81;67.81
76239;SHT30;65043;48.392;-4.472;2024-02-23T11:03:58;9.78;67.79
76239;SHT30;65043;48.392;-4.472;2024-02-23T11:06:28;9.84;67.07
76239;SHT30;65043;48.392;-4.472;2024-02-23T11:09:04;9.80;66.66
76239;SHT30;65043;48.392;-4.472;2024-02-23T11:11:31;9.83;65.60
76239;SHT30;65043;48.392;-4.472;2024-02-23T11:13:57;9.75;65.63
76239;SHT30;65043;48.392;-4.472;2024-02-23T11:16:22;9.78;66.80
76239;SHT30;65043;48.392;-4.472;2024-02-23T11:18:48;9.81;66.18
76239;SHT30;65043;48.392;-4.472;2024-02-23T11:21:14;9.80;66.63
76239;SHT30;65043;48.392;-4.472;2024-02-23T11:23:48;9.80;66.15
76239;SHT30;65043;48.392;-4.472;2024-02-23T11:26:17;9.70;65.55
76239;SHT30;65043;48.392;-4.472;2024-02-23T11:28:49;9.56;66.59
76239;SHT30;65043;48.392;-4.472;2024-02-23T11:31:22;9.46;64.54
76239;SHT30;65043;48.392;-4.472;2024-02-23T11:33:52;9.36;65.32
76239;SHT30;65043;48.392;-4.472;2024-02-23T11:36:28;9.30;66.37
76239;SHT30;65043;48.392;-4.472;2024-02-23T11:38:54;9.35;67.08
76239;SHT30;65043;48.392;-4.472;2024-02-23T11:41:23;9.30;66.85
76239;SHT30;65043;48.392;-4.472;2024-02-23T11:43:50;9.16;66.86
76239;SHT30;65043;48.392;-4.472;2024-02-23T11:46:16;8.98;69.27
76239;SHT30;65043;48.392;-4.472;2024-02-23T11:48:43;8.75;69.21
76239;SHT30;65043;48.392;-4.472;2024-02-23T11:51:09;8.63;69.71
76239;SHT30;65043;48.392;-4.472;2024-02-23T11:53:36;8.53;70.51
76239;SHT30;65043;48.392;-4.472;2024-02-23T11:56:07;8.54;70.89
76239;SHT30;65043;48.392;-4.472;2024-02-23T11:58:33;8.54;70.33
76239;SHT30;65043;48.392;-4.472;2024-02-23T12:00:59;8.55;70.67
76239;SHT30;65043;48.392;-4.472;2024-02-23T12:03:28;8.54;69.93
76239;SHT30;65043;48.392;-4.472;2024-02-23T12:05:53;8.54;70.00
76239;SHT30;65043;48.392;-4.472;2024-02-23T12:08:19;8.50;69.75
76239;SHT30;65043;48.392;-4.472;2024-02-23T12:10:44;8.57;69.90
76239;SHT30;65043;48.392;-4.472;2024-02-23T12:13:10;8.60;70.07
76239;SHT30;65043;48.392;-4.472;2024-02-23T12:15:35;8.60;69.77
76239;SHT30;65043;48.392;-4.472;2024-02-23T12:18:06;8.67;70.02
76239;SHT30;65043;48.392;-4.472;2024-02-23T12:20:35;8.68;69.23
76239;SHT30;65043;48.392;-4.472;2024-02-23T12:23:01;8.72;69.67
76239;SHT30;65043;48.392;-4.472;2024-02-23T12:25:26;8.78;69.83
76239;SHT30;65043;48.392;-4.472;2024-02-23T12:27:56;8.86;70.34
76239;SHT30;65043;48.392;-4.472;2024-02-23T12:30:26;8.96;69.72
76239;SHT30;65043;48.392;-4.472;2024-02-23T12:33:03;8.99;69.14
76239;SHT30;65043;48.392;-4.472;2024-02-23T12:35:29;9.02;68.52
76239;SHT30;65043;48.392;-4.472;2024-02-23T12:37:54;9.02;69.16
76239;SHT30;65043;48.392;-4.472;2024-02-23T12:40:20;9.05;68.09
76239;SHT30;65043;48.392;-4.472;2024-02-23T12:42:45;9.09;68.57
76239;SHT30;65043;48.392;-4.472;2024-02-23T12:45:13;9.11;68.24
76239;SHT30;65043;48.392;-4.472;2024-02-23T12:47:39;9.13;67.60
76239;SHT30;65043;48.392;-4.472;2024-02-23T12:50:05;9.19;67.78
76239;SHT30;65043;48.392;-4.472;2024-02-23T12:52:33;9.26;67.92
76239;SHT30;65043;48.392;-4.472;2024-02-23T12:54:59;9.42;67.48
76239;SHT30;65043;48.392;-4.472;2024-02-23T12:57:24;9.61;68.04
76239;SHT30;65043;48.392;-4.472;2024-02-23T12:59:50;9.74;67.55
76239;SHT30;65043;48.392;-4.472;2024-02-23T13:02:15;9.88;68.03
76239;SHT30;65043;48.392;-4.472;2024-02-23T13:04:41;9.91;66.89
76239;SHT30;65043;48.392;-4.472;2024-02-23T13:07:08;9.85;66.47
76239;SHT30;65043;48.392;-4.472;2024-02-23T13:09:34;9.81;67.09
76239;SHT30;65043;48.392;-4.472;2024-02-23T13:11:59;9.78;66.93
76239;SHT30;65043;48.392;-4.472;2024-02-23T13:14:24;9.71;67.12
76239;SHT30;65043;48.392;-4.472;2024-02-23T13:16:50;9.61;67.73
76239;SHT30;65043;48.392;-4.472;2024-02-23T13:19:16;9.57;67.15
76239;SHT30;65043;48.392;-4.472;2024-02-23T13:21:41;9.48;67.59
76239;SHT30;65043;48.392;-4.472;2024-02-23T13:24:07;9.42;67.81
76239;SHT30;65043;48.392;-4.472;2024-02-23T13:26:33;9.37;68.25
76239;SHT30;65043;48.392;-4.472;2024-02-23T13:28:59;9.36;68.47
76239;SHT30;65043;48.392;-4.472;2024-02-23T13:31:24;9.37;69.32
76239;SHT30;65043;48.392;-4.472;2024-02-23T13:33:50;9.36;69.08
76239;SHT30;65043;48.392;-4.472;2024-02-23T13:36:16;9.35;69.21
76239;SHT30;65043;48.392;-4.472;2024-02-23T13:38:41;9.35;69.68
76239;SHT30;65043;48.392;-4.472;2024-02-23T13:41:07;9.37;68.78
76239;SHT30;65043;48.392;-4.472;2024-02-23T13:43:32;9.36;68.69
76239;SHT30;65043;48.392;-4.472;2024-02-23T13:45:59;9.39;69.81
76239;SHT30;65043;48.392;-4.472;2024-02-23T13:48:25;9.42;69.78
76239;SHT30;65043;48.392;-4.472;2024-02-23T13:50:50;9.40;69.40
76239;SHT30;65043;48.392;-4.472;2024-02-23T13:53:16;9.39;69.57
76239;SHT30;65043;48.392;-4.472;2024-02-23T13:55:41;9.39;70.02
76239;SHT30;65043;48.392;-4.472;2024-02-23T13:58:10;9.37;70.09
76239;SHT30;65043;48.392;-4.472;2024-02-23T14:00:37;9.32;69.85
76239;SHT30;65043;48.392;-4.472;2024-02-23T14:03:03;9.26;69.20
76239;SHT30;65043;48.392;-4.472;2024-02-23T14:05:28;9.19;68.01
76239;SHT30;65043;48.392;-4.472;2024-02-23T14:07:54;9.09;66.49
76239;SHT30;65043;48.392;-4.472;2024-02-23T14:10:20;9.04;66.71
76239;SHT30;65043;48.392;-4.472;2024-02-23T14:12:45;8.99;65.46
76239;SHT30;65043;48.392;-4.472;2024-02-23T14:15:11;9.09;64.76
76239;SHT30;65043;48.392;-4.472;2024-02-23T14:17:43;9.13;64.92
76239;SHT30;65043;48.392;-4.472;2024-02-23T14:20:18;9.13;64.80
76239;SHT30;65043;48.392;-4.472;2024-02-23T14:22:43;9.13;65.88
76239;SHT30;65043;48.392;-4.472;2024-02-23T14:25:09;9.08;64.44
76239;SHT30;65043;48.392;-4.472;2024-02-23T14:27:35;9.02;64.41
76239;SHT30;65043;48.392;-4.472;2024-02-23T14:30:00;9.02;65.26
76239;SHT30;65043;48.392;-4.472;2024-02-23T14:32:26;9.01;65.58
76239;SHT30;65043;48.392;-4.472;2024-02-23T14:34:51;9.04;65.92
76239;SHT30;65043;48.392;-4.472;2024-02-23T14:37:17;8.96;64.62
76239;SHT30;65043;48.392;-4.472;2024-02-23T14:39:42;8.98;65.57
76239;SHT30;65043;48.392;-4.472;2024-02-23T14:42:08;8.96;65.55
76239;SHT30;65043;48.392;-4.472;2024-02-23T14:44:34;8.98;66.61
76239;SHT30;65043;48.392;-4.472;2024-02-23T14:47:01;9.02;65.87
76239;SHT30;65043;48.392;-4.472;2024-02-23T14:49:27;9.04;67.05
76239;SHT30;65043;48.392;-4.472;2024-02-23T14:51:52;9.05;67.09
76239;SHT30;65043;48.392;-4.472;2024-02-23T14:54:18;8.99;66.74
76239;SHT30;65043;48.392;-4.472;2024-02-23T14:56:43;9.05;66.18
76239;SHT30;65043;48.392;-4.472;2024-02-23T14:59:09;9.06;66.88
76239;SHT30;65043;48.392;-4.472;2024-02-23T15:01:37;9.05;66.83
76239;SHT30;65043;48.392;-4.472;2024-02-23T15:04:04;9.06;66.96
76239;SHT30;65043;48.392;-4.472;2024-02-23T15:06:29;9.11;65.99
76239;SHT30;65043;48.392;-4.472;2024-02-23T15:08:55;9.12;66.39
76239;SHT30;65043;48.392;-4.472;2024-02-23T15:11:20;9.13;63.60
76239;SHT30;65043;48.392;-4.472;2024-02-23T15:13:46;9.22;61.09
76239;SHT30;65043;48.392;-4.472;2024-02-23T15:16:12;9.39;62.10
76239;SHT30;65043;48.392;-4.472;2024-02-23T15:18:38;9.50;62.77
76239;SHT30;65043;48.392;-4.472;2024-02-23T15:21:03;9.60;62.67
76239;SHT30;65043;48.392;-4.472;2024-02-23T15:30:57;9.74;62.70
76239;SHT30;65043;48.392;-4.472;2024-02-23T19:46:46;8.30;71.36
76239;SHT30;65043;48.392;-4.472;2024-02-23T19:50:05;8.41;71.55
76239;SHT30;65043;48.392;-4.472;2024-02-23T19:52:44;8.41;70.98
76239;SHT30;65043;48.392;-4.472;2024-02-23T22:26:58;8.06;74.88
76239;SHT30;65043;48.392;-4.472;2024-02-23T22:29:24;8.00;74.74
76239;SHT30;65043;48.392;-4.472;2024-02-23T22:31:50;7.99;73.06
76239;SHT30;65043;48.392;-4.472;2024-02-23T22:34:17;8.06;72.68
76239;SHT30;65043;48.392;-4.472;2024-02-23T22:36:45;8.13;72.43
76239;SHT30;65043;48.392;-4.472;2024-02-23T22:39:10;8.17;72.00
76239;SHT30;65043;48.392;-4.472;2024-02-23T22:41:36;8.24;72.07
76239;SHT30;65043;48.392;-4.472;2024-02-23T22:44:04;8.24;71.96
76239;SHT30;65043;48.392;-4.472;2024-02-23T22:46:29;8.30;72.01
76239;SHT30;65043;48.392;-4.472;2024-02-23T22:48:55;8.27;71.65
76239;SHT30;65043;48.392;-4.472;2024-02-23T22:51:20;8.29;71.75
76239;SHT30;65043;48.392;-4.472;2024-02-23T22:53:46;8.30;71.32
76239;SHT30;65043;48.392;-4.472;2024-02-23T22:56:11;8.30;71.72
76239;SHT30;65043;48.392;-4.472;2024-02-23T22:58:39;8.32;71.69
76239;SHT30;65043;48.392;-4.472;2024-02-23T23:01:04;8.34;71.86
76239;SHT30;65043;48.392;-4.472;2024-02-23T23:03:30;8.32;72.06
76239;SHT30;65043;48.392;-4.472;2024-02-23T23:05:55;8.32;71.80
76239;SHT30;65043;48.392;-4.472;2024-02-23T23:08:21;8.34;71.92
76239;SHT30;65043;48.392;-4.472;2024-02-23T23:10:46;8.34;71.93
76239;SHT30;65043;48.392;-4.472;2024-02-23T23:13:12;8.37;72.05
76239;SHT30;65043;48.392;-4.472;2024-02-23T23:15:38;8.40;72.05
76239;SHT30;65043;48.392;-4.472;2024-02-23T23:18:04;8.36;72.09
76239;SHT30;65043;48.392;-4.472;2024-02-23T23:20:29;8.38;71.95
76239;SHT30;65043;48.392;-4.472;2024-02-23T23:22:54;8.38;72.10
76239;SHT30;65043;48.392;-4.472;2024-02-23T23:25:20;8.37;72.34
76239;SHT30;65043;48.392;-4.472;2024-02-23T23:27:45;8.36;72.69
76239;SHT30;65043;48.392;-4.472;2024-02-23T23:30:13;8.34;72.67
76239;SHT30;65043;48.392;-4.472;2024-02-23T23:32:39;8.34;72.71
76239;SHT30;65043;48.392;-4.472;2024-02-23T23:35:05;8.27;73.07
76239;SHT30;65043;48.392;-4.472;2024-02-23T23:37:31;8.27;73.17
76239;SHT30;65043;48.392;-4.472;2024-02-23T23:39:56;8.27;72.85
76239;SHT30;65043;48.392;-4.472;2024-02-23T23:42:24;8.27;73.13
76239;SHT30;65043;48.392;-4.472;2024-02-23T23:44:49;8.27;73.59
76239;SHT30;65043;48.392;-4.472;2024-02-23T23:47:15;8.27;72.82
76239;SHT30;65043;48.392;-4.472;2024-02-23T23:49:41;8.24;72.77
76239;SHT30;65043;48.392;-4.472;2024-02-23T23:52:06;8.19;72.16